Time;durP1;ratioP1;P1;durP2;ratioP2;P2;SDS_P1;SDS_P2;PMS_P1;PMS_P2;Temp;Humidity;BMP_temperature;BMP_pressure;BME280_temperature;BME280_humidity;BME280_pressure;Samples;Min_cycle;Max_cycle;Signal;HPM_P1;HPM_P2
2023/06/27 00:01:15;;;;;;;2.10;1.35;;;25.90;46.20;;;;;;5039938;27;87987;-88
2023/06/27 00:03:40;;;;;;;2.33;1.10;;;25.90;46.10;;;;;;5038059;28;90798;-88
2023/06/27 00:06:06;;;;;;;1.10;0.90;;;25.90;45.90;;;;;;5040473;28;87968;-88
2023/06/27 00:08:32;;;;;;;0.93;0.80;;;25.90;46.00;;;;;;5039611;27;88024;-88
2023/06/27 00:10:58;;;;;;;2.55;1.30;;;25.90;46.00;;;;;;5038097;28;91629;-87
2023/06/27 00:13:24;;;;;;;1.95;1.33;;;25.90;46.40;;;;;;5038032;27;88768;-87
2023/06/27 00:15:52;;;;;;;1.40;1.00;;;25.90;46.30;;;;;;5039299;27;87086;-87
2023/06/27 00:18:21;;;;;;;2.63;1.27;;;25.90;46.30;;;;;;5037764;27;89091;-87
2023/06/27 00:20:48;;;;;;;1.67;1.00;;;25.90;46.50;;;;;;5039123;28;88655;-88
2023/06/27 00:23:27;;;;;;;1.38;1.00;;;25.90;46.50;;;;;;5038431;27;88250;-87
2023/06/27 00:25:53;;;;;;;1.50;1.05;;;25.80;46.50;;;;;;5037680;28;87317;-88
2023/06/27 00:28:18;;;;;;;1.27;1.00;;;25.90;46.40;;;;;;5037286;27;89757;-87
2023/06/27 00:30:44;;;;;;;3.60;1.40;;;25.80;46.30;;;;;;5038540;27;89943;-87
2023/06/27 00:33:09;;;;;;;1.88;1.13;;;25.90;46.50;;;;;;5040382;28;88488;-88
2023/06/27 00:35:37;;;;;;;3.72;1.45;;;25.90;46.30;;;;;;5039427;27;87292;-87
2023/06/27 00:38:03;;;;;;;1.88;1.10;;;25.90;46.60;;;;;;5037167;27;87624;-88
2023/06/27 00:40:29;;;;;;;1.85;1.15;;;25.80;46.60;;;;;;5037576;27;91985;-88
2023/06/27 00:42:54;;;;;;;1.17;1.00;;;25.80;46.60;;;;;;5038691;27;87481;-88
2023/06/27 00:45:22;;;;;;;1.67;1.33;;;25.80;47.00;;;;;;5039026;27;87660;-88
2023/06/27 00:47:49;;;;;;;1.20;1.10;;;25.80;46.70;;;;;;5040227;28;86779;-87
2023/06/27 00:50:15;;;;;;;2.38;1.42;;;25.90;46.60;;;;;;5037380;27;90200;-87
2023/06/27 00:52:41;;;;;;;3.67;1.25;;;25.90;46.80;;;;;;5037096;28;89794;-86
2023/06/27 00:55:07;;;;;;;1.00;0.88;;;25.80;46.70;;;;;;5037550;27;88186;-88
2023/06/27 00:57:33;;;;;;;2.83;1.23;;;25.90;46.70;;;;;;5036049;27;88946;-88
2023/06/27 00:59:59;;;;;;;1.42;1.02;;;25.90;46.80;;;;;;5039097;28;87656;-86
2023/06/27 01:02:25;;;;;;;1.23;0.98;;;25.90;47.30;;;;;;5038945;27;88155;-88
2023/06/27 01:04:53;;;;;;;1.88;1.30;;;25.90;47.00;;;;;;5036765;28;87437;-87
2023/06/27 01:07:25;;;;;;;1.20;0.90;;;25.80;46.80;;;;;;5038387;27;87247;-87
2023/06/27 01:09:54;;;;;;;1.58;1.05;;;25.80;46.90;;;;;;5038435;27;88176;-86
2023/06/27 01:12:21;;;;;;;1.60;0.88;;;25.80;47.10;;;;;;5038711;27;88267;-88
2023/06/27 01:14:49;;;;;;;2.40;1.23;;;25.80;47.00;;;;;;5037250;28;87160;-87
2023/06/27 01:17:17;;;;;;;1.30;1.20;;;25.80;47.20;;;;;;5037078;27;87651;-87
2023/06/27 01:19:45;;;;;;;1.10;0.95;;;25.80;47.20;;;;;;5036244;28;89714;-87
2023/06/27 01:22:16;;;;;;;1.25;1.10;;;25.70;47.20;;;;;;5037986;27;88486;-86
2023/06/27 01:24:43;;;;;;;2.28;1.00;;;25.80;47.20;;;;;;5037838;27;87505;-87
2023/06/27 01:27:11;;;;;;;1.75;1.10;;;25.80;47.30;;;;;;5038859;28;87468;-87
2023/06/27 01:29:40;;;;;;;1.75;1.10;;;25.80;47.60;;;;;;5036040;28;90230;-86
2023/06/27 01:32:36;;;;;;;1.83;1.08;;;25.80;47.30;;;;;;5037334;27;88349;-86
2023/06/27 01:35:15;;;;;;;1.95;1.00;;;25.70;47.30;;;;;;5017492;28;87334;-87
2023/06/27 01:37:51;;;;;;;1.63;0.80;;;25.80;47.30;;;;;;5037626;27;87381;-87
2023/06/27 01:40:19;;;;;;;1.45;1.00;;;25.70;47.70;;;;;;5037095;27;88165;-87
2023/06/27 01:42:53;;;;;;;1.63;1.10;;;25.70;47.30;;;;;;5036140;27;90536;-87
2023/06/27 01:45:20;;;;;;;1.90;1.00;;;25.70;47.30;;;;;;5037563;27;88226;-86
2023/06/27 01:47:46;;;;;;;1.85;1.05;;;25.80;47.70;;;;;;5037455;28;88798;-87
2023/06/27 01:50:12;;;;;;;1.50;1.25;;;25.70;47.40;;;;;;5037137;27;88230;-87
2023/06/27 01:52:38;;;;;;;1.58;1.02;;;25.70;47.40;;;;;;5035463;28;91489;-88
2023/06/27 01:55:04;;;;;;;1.05;0.90;;;25.70;47.50;;;;;;5037597;27;87500;-87
2023/06/27 01:57:30;;;;;;;1.45;1.30;;;25.70;47.40;;;;;;5037490;27;87593;-86
2023/06/27 01:59:55;;;;;;;1.45;1.00;;;25.70;47.80;;;;;;5038271;27;87661;-87
2023/06/27 02:02:21;;;;;;;1.73;1.23;;;25.70;47.70;;;;;;5037613;27;88260;-87
2023/06/27 02:04:47;;;;;;;1.58;1.20;;;25.70;47.60;;;;;;5027788;27;87286;-88
2023/06/27 02:07:12;;;;;;;1.48;1.15;;;25.70;47.80;;;;;;5037281;27;87313;-87
2023/06/27 02:09:38;;;;;;;1.48;1.00;;;25.70;47.50;;;;;;5035401;27;91230;-86
2023/06/27 02:12:04;;;;;;;1.23;0.93;;;25.70;47.80;;;;;;5037927;28;88236;-88
2023/06/27 02:14:31;;;;;;;1.00;0.82;;;25.70;48.10;;;;;;5037483;27;87201;-87
2023/06/27 02:16:56;;;;;;;1.90;1.13;;;25.70;47.70;;;;;;5036949;27;87939;-86
2023/06/27 02:19:23;;;;;;;1.30;1.10;;;25.70;47.70;;;;;;5037093;27;88280;-88
2023/06/27 02:21:49;;;;;;;1.55;1.13;;;25.70;47.90;;;;;;5037324;27;87115;-86
2023/06/27 02:24:15;;;;;;;1.52;1.33;;;25.70;47.90;;;;;;5037545;27;87038;-87
2023/06/27 02:26:41;;;;;;;1.52;0.90;;;25.70;47.90;;;;;;5038092;28;88014;-87
2023/06/27 02:29:07;;;;;;;1.60;1.20;;;25.70;48.00;;;;;;5036706;27;88296;-88
2023/06/27 02:31:32;;;;;;;2.03;1.10;;;25.70;48.20;;;;;;5036402;27;88431;-88
2023/06/27 02:33:59;;;;;;;1.50;1.10;;;25.70;48.30;;;;;;5036740;27;87812;-88
2023/06/27 02:36:27;;;;;;;1.27;1.02;;;25.70;48.30;;;;;;5037449;27;89603;-88
2023/06/27 02:38:55;;;;;;;1.15;0.85;;;25.70;48.00;;;;;;5038122;28;89014;-87
2023/06/27 02:41:22;;;;;;;2.97;1.40;;;25.70;47.90;;;;;;5036887;27;88251;-87
2023/06/27 02:43:48;;;;;;;1.65;1.25;;;25.70;48.00;;;;;;5036619;27;87575;-87
2023/06/27 02:46:14;;;;;;;1.30;0.90;;;25.70;48.10;;;;;;5036248;27;87149;-87
2023/06/27 02:48:39;;;;;;;1.10;1.00;;;25.70;48.00;;;;;;5036799;27;88509;-87
2023/06/27 02:51:05;;;;;;;2.60;1.10;;;25.70;48.10;;;;;;5038198;28;87296;-88
2023/06/27 02:53:31;;;;;;;0.80;0.80;;;25.60;48.00;;;;;;5037446;27;87032;-87
2023/06/27 02:55:57;;;;;;;2.05;1.10;;;25.60;48.60;;;;;;5036912;27;87496;-87
2023/06/27 02:58:24;;;;;;;0.93;0.80;;;25.60;48.10;;;;;;5036190;27;88350;-87
2023/06/27 03:00:50;;;;;;;1.02;0.93;;;25.60;48.60;;;;;;5036649;27;89178;-87
2023/06/27 03:03:15;;;;;;;1.40;1.00;;;25.60;48.30;;;;;;5037255;27;86885;-88
2023/06/27 03:05:41;;;;;;;1.58;1.10;;;25.60;48.30;;;;;;5037508;28;87281;-87
2023/06/27 03:08:06;;;;;;;2.20;1.35;;;25.60;48.20;;;;;;5036689;27;88669;-87
2023/06/27 03:10:32;;;;;;;1.17;0.90;;;25.60;48.50;;;;;;5035525;28;89688;-85
2023/06/27 03:12:59;;;;;;;1.20;0.93;;;25.60;48.70;;;;;;5036345;27;87215;-88
2023/06/27 03:15:24;;;;;;;1.00;0.90;;;25.60;48.30;;;;;;5036463;27;86804;-86
2023/06/27 03:17:50;;;;;;;1.25;0.93;;;25.60;48.40;;;;;;5037192;28;88586;-88
2023/06/27 03:20:16;;;;;;;1.40;1.10;;;25.60;48.30;;;;;;5038770;27;88310;-87
2023/06/27 03:22:41;;;;;;;1.33;1.00;;;25.60;48.40;;;;;;5038707;27;88095;-88
2023/06/27 03:25:10;;;;;;;1.60;0.98;;;25.60;48.60;;;;;;5039321;27;87218;-87
2023/06/27 03:27:36;;;;;;;0.95;0.80;;;25.60;48.60;;;;;;5038697;27;88339;-86
2023/06/27 03:30:02;;;;;;;1.60;0.90;;;25.60;48.60;;;;;;5040782;28;88247;-87
2023/06/27 03:32:28;;;;;;;1.83;1.10;;;25.60;48.60;;;;;;5038661;27;87320;-87
2023/06/27 03:34:54;;;;;;;1.40;0.98;;;25.60;48.60;;;;;;5039511;27;87286;-87
2023/06/27 03:37:19;;;;;;;2.05;1.40;;;25.60;48.60;;;;;;5039663;27;87754;-87
2023/06/27 03:39:45;;;;;;;1.55;1.00;;;25.60;48.60;;;;;;5039177;27;86506;-87
2023/06/27 03:42:11;;;;;;;1.25;1.02;;;25.60;48.60;;;;;;5039566;28;87037;-87
2023/06/27 03:44:37;;;;;;;1.30;0.82;;;25.60;48.60;;;;;;5039279;27;87295;-87
2023/06/27 03:47:03;;;;;;;1.60;0.80;;;25.50;49.10;;;;;;5038492;27;88603;-86
2023/06/27 03:49:29;;;;;;;2.15;1.10;;;25.50;48.70;;;;;;5039463;27;88265;-87
2023/06/27 03:51:55;;;;;;;2.25;0.85;;;25.50;48.70;;;;;;5039076;27;88852;-87
2023/06/27 03:54:21;;;;;;;1.08;0.90;;;25.50;48.60;;;;;;5039771;27;87384;-87
2023/06/27 03:56:47;;;;;;;2.35;1.10;;;25.50;48.80;;;;;;5040559;28;88595;-87
2023/06/27 03:59:12;;;;;;;1.83;1.23;;;25.50;48.70;;;;;;5039603;27;88680;-86
2023/06/27 04:01:41;;;;;;;2.72;1.35;;;25.50;49.10;;;;;;5039398;27;86995;-88
2023/06/27 04:04:07;;;;;;;1.45;0.90;;;25.50;48.80;;;;;;5038849;27;87425;-87
2023/06/27 04:06:33;;;;;;;1.27;1.00;;;25.50;48.80;;;;;;5039506;27;88970;-87
2023/06/27 04:09:00;;;;;;;1.25;1.15;;;25.50;48.80;;;;;;5040229;28;87494;-87
2023/06/27 04:11:25;;;;;;;1.52;1.23;;;25.50;48.90;;;;;;5039018;27;88480;-87
2023/06/27 04:13:51;;;;;;;1.00;0.88;;;25.50;48.70;;;;;;5039458;27;87577;-86
2023/06/27 04:16:16;;;;;;;1.10;1.00;;;25.50;48.60;;;;;;5038226;27;87127;-87
2023/06/27 04:18:42;;;;;;;2.15;1.33;;;25.50;48.60;;;;;;5039181;27;88249;-87
2023/06/27 04:21:07;;;;;;;1.15;0.90;;;25.50;48.60;;;;;;5040707;28;87217;-87
2023/06/27 04:23:33;;;;;;;1.20;1.10;;;25.50;48.80;;;;;;5036624;27;90077;-87
2023/06/27 04:26:04;;;;;;;1.38;1.10;;;25.50;48.90;;;;;;5038738;28;95187;-87
2023/06/27 04:28:33;;;;;;;1.00;0.90;;;25.50;48.80;;;;;;5038707;27;88311;-86
2023/06/27 04:31:00;;;;;;;;;;;25.50;48.70;;;;;;5037385;27;87146;-87
2023/06/27 04:33:29;;;;;;;1.13;0.90;;;25.50;48.70;;;;;;5040489;27;87185;-87
2023/06/27 04:35:57;;;;;;;;;;;25.50;49.10;;;;;;5038943;27;88615;-88
2023/06/27 04:38:22;;;;;;;1.33;1.00;;;25.50;48.90;;;;;;5040371;27;88879;-87
2023/06/27 04:40:48;;;;;;;1.10;1.00;;;25.50;49.10;;;;;;5039000;27;87395;-88
2023/06/27 04:43:14;;;;;;;1.08;0.90;;;25.50;48.80;;;;;;5038622;27;87019;-87
2023/06/27 04:45:40;;;;;;;1.30;1.08;;;25.50;48.90;;;;;;5038570;27;87444;-88
2023/06/27 04:48:05;;;;;;;0.98;0.80;;;25.50;48.80;;;;;;5040179;28;88113;-87
2023/06/27 04:50:31;;;;;;;1.35;0.90;;;25.60;48.80;;;;;;5039344;27;86823;-88
2023/06/27 04:52:56;;;;;;;2.15;1.10;;;25.60;49.20;;;;;;5037676;28;90753;-86
2023/06/27 04:55:24;;;;;;;1.10;0.95;;;25.60;48.70;;;;;;5038528;27;89000;-88
2023/06/27 04:57:49;;;;;;;1.23;1.10;;;25.70;48.80;;;;;;5038186;27;88909;-87
2023/06/27 05:00:15;;;;;;;1.50;1.10;;;25.70;48.90;;;;;;5038920;27;88125;-87
2023/06/27 05:02:41;;;;;;;1.15;1.05;;;25.80;49.20;;;;;;5039490;28;88297;-88
2023/06/27 05:05:08;;;;;;;1.45;0.90;;;25.80;48.80;;;;;;5038399;27;88756;-87
2023/06/27 05:07:34;;;;;;;0.90;0.68;;;25.80;48.90;;;;;;5037782;27;88564;-88
2023/06/27 05:09:59;;;;;;;1.52;0.98;;;25.90;48.80;;;;;;5037850;28;87311;-87
2023/06/27 05:12:26;;;;;;;1.88;1.02;;;25.90;48.60;;;;;;5036738;27;90877;-87
2023/06/27 05:14:51;;;;;;;1.60;1.20;;;25.90;49.10;;;;;;5038653;28;87455;-86
2023/06/27 05:17:17;;;;;;;1.02;0.73;;;25.90;48.60;;;;;;5037563;28;91207;-87
2023/06/27 05:19:42;;;;;;;1.80;0.95;;;26.00;48.50;;;;;;5039076;27;87268;-87
2023/06/27 05:22:08;;;;;;;1.02;1.00;;;26.00;48.90;;;;;;5036162;27;89389;-87
2023/06/27 05:24:34;;;;;;;1.77;1.10;;;26.10;48.40;;;;;;5035933;27;92397;-87
2023/06/27 05:26:59;;;;;;;1.55;1.10;;;26.10;48.60;;;;;;5038578;28;90735;-87
2023/06/27 05:29:25;;;;;;;1.20;0.90;;;26.10;48.20;;;;;;5038139;27;87016;-87
2023/06/27 05:31:51;;;;;;;1.15;0.93;;;26.10;48.20;;;;;;5052893;27;89411;-87
2023/06/27 05:34:17;;;;;;;1.13;0.93;;;26.20;48.20;;;;;;5036033;28;91803;-86
2023/06/27 05:36:42;;;;;;;1.25;0.88;;;26.30;48.60;;;;;;5038245;27;87240;-86
2023/06/27 05:39:08;;;;;;;1.25;0.90;;;26.30;48.00;;;;;;5039183;28;87408;-87
2023/06/27 05:41:33;;;;;;;1.00;0.90;;;26.30;48.10;;;;;;5036661;27;86982;-88
2023/06/27 05:43:59;;;;;;;1.80;1.10;;;26.30;48.20;;;;;;5038448;27;88457;-88
2023/06/27 05:46:25;;;;;;;1.85;1.00;;;26.40;48.20;;;;;;5035569;27;89836;-87
2023/06/27 05:48:50;;;;;;;1.63;1.20;;;26.30;48.20;;;;;;5037389;27;88430;-88
2023/06/27 05:51:16;;;;;;;2.47;1.35;;;26.40;48.10;;;;;;5036514;27;89446;-86
2023/06/27 05:53:41;;;;;;;1.85;0.93;;;26.40;48.00;;;;;;5038487;28;88339;-87
2023/06/27 05:56:08;;;;;;;1.48;1.02;;;26.50;48.00;;;;;;5037500;27;87176;-87
2023/06/27 05:58:37;;;;;;;1.73;1.10;;;26.40;48.00;;;;;;5036638;27;87362;-86
2023/06/27 06:01:02;;;;;;;1.45;0.98;;;26.50;48.00;;;;;;5035782;28;91164;-88
2023/06/27 06:03:28;;;;;;;1.60;1.20;;;26.50;48.00;;;;;;5037253;27;88603;-87
2023/06/27 06:05:53;;;;;;;1.80;0.93;;;26.50;48.60;;;;;;5036659;28;90942;-87
2023/06/27 06:08:19;;;;;;;1.55;1.20;;;26.60;47.90;;;;;;5038350;27;87167;-88
2023/06/27 06:10:45;;;;;;;1.00;0.90;;;26.60;47.90;;;;;;5037017;27;87379;-87
2023/06/27 06:13:11;;;;;;;2.08;1.10;;;26.70;48.30;;;;;;5035907;27;90501;-88
2023/06/27 06:15:37;;;;;;;1.95;0.90;;;26.60;48.00;;;;;;5034457;27;89606;-88
2023/06/27 06:18:02;;;;;;;2.20;0.80;;;26.70;47.80;;;;;;5037791;28;87357;-84
2023/06/27 06:20:29;;;;;;;4.60;1.52;;;26.70;47.70;;;;;;5035703;27;87019;-86
2023/06/27 06:22:55;;;;;;;7.95;2.30;;;26.50;46.50;;;;;;5037622;27;88402;-89
2023/06/27 06:25:21;;;;;;;6.18;2.42;;;26.50;46.60;;;;;;5036546;27;89850;-90
2023/06/27 06:27:47;;;;;;;7.18;2.72;;;26.40;45.70;;;;;;5035905;28;87205;-88
2023/06/27 06:30:12;;;;;;;7.55;2.47;;;26.40;46.10;;;;;;5037507;28;90073;-90
2023/06/27 06:32:38;;;;;;;10.13;2.63;;;26.20;45.90;;;;;;5036063;27;91195;-88
2023/06/27 06:35:04;;;;;;;10.18;3.03;;;26.20;46.30;;;;;;5035476;28;91140;-87
2023/06/27 06:37:30;;;;;;;8.88;2.90;;;26.20;46.20;;;;;;5034578;27;88095;-85
2023/06/27 06:39:55;;;;;;;11.60;3.03;;;26.00;45.90;;;;;;5035560;27;87330;-83
2023/06/27 06:42:21;;;;;;;9.15;2.65;;;25.90;46.40;;;;;;5035334;27;88414;-83
2023/06/27 06:44:48;;;;;;;8.13;2.88;;;26.00;46.40;;;;;;5035692;28;87729;-83
2023/06/27 06:47:14;;;;;;;10.93;2.90;;;25.90;46.50;;;;;;5035336;27;87222;-84
2023/06/27 06:49:40;;;;;;;8.50;2.53;;;25.80;46.70;;;;;;5034591;27;87371;-83
2023/06/27 06:52:05;;;;;;;17.02;3.33;;;25.90;46.20;;;;;;5032271;27;88592;-83
2023/06/27 06:54:31;;;;;;;9.95;3.28;;;25.80;46.50;;;;;;5033812;27;88588;-82
2023/06/27 06:56:57;;;;;;;9.93;2.58;;;25.80;46.70;;;;;;5035144;28;87285;-83
2023/06/27 06:59:22;;;;;;;11.88;3.00;;;25.70;47.00;;;;;;5034078;27;87712;-83
2023/06/27 07:01:48;;;;;;;12.45;3.05;;;25.70;47.70;;;;;;5032711;27;89094;-84
2023/06/27 07:04:13;;;;;;;8.25;2.53;;;25.60;47.20;;;;;;5032549;27;88907;-85
2023/06/27 07:06:39;;;;;;;13.23;3.10;;;25.60;47.30;;;;;;5032022;27;87538;-83
2023/06/27 07:09:04;;;;;;;12.40;2.90;;;25.70;47.30;;;;;;5033819;28;87343;-84
2023/06/27 07:11:30;;;;;;;10.50;2.72;;;25.80;46.90;;;;;;5032819;27;87906;-86
2023/06/27 07:13:56;;;;;;;8.93;2.65;;;25.70;47.40;;;;;;5029885;28;91093;-83
2023/06/27 07:16:21;;;;;;;10.23;2.80;;;25.70;47.00;;;;;;5032275;27;87040;-84
2023/06/27 07:18:47;;;;;;;13.65;3.30;;;25.60;47.30;;;;;;5033327;27;87369;-85
2023/06/27 07:21:12;;;;;;;11.20;2.75;;;25.60;47.60;;;;;;5031028;28;87650;-81
2023/06/27 07:23:38;;;;;;;8.20;2.50;;;25.60;47.50;;;;;;5029898;27;87505;-83
2023/06/27 07:26:04;;;;;;;10.52;2.60;;;25.50;48.30;;;;;;5032337;27;87966;-82
2023/06/27 07:28:30;;;;;;;15.25;3.22;;;25.50;48.10;;;;;;5029356;27;87515;-81
2023/06/27 07:30:55;;;;;;;12.07;3.33;;;25.50;47.80;;;;;;5029914;27;88233;-83
2023/06/27 07:33:21;;;;;;;14.15;3.60;;;25.60;47.70;;;;;;5030939;27;88041;-86
2023/06/27 07:35:47;;;;;;;7.65;2.65;;;25.70;48.30;;;;;;5030530;28;86949;-82
2023/06/27 07:38:16;;;;;;;8.68;2.67;;;25.80;47.60;;;;;;5030685;27;87352;-83
2023/06/27 07:40:41;;;;;;;10.95;2.45;;;25.80;47.50;;;;;;5029841;27;89037;-81
2023/06/27 07:43:07;;;;;;;15.02;3.20;;;25.70;47.80;;;;;;5030918;27;87790;-81
2023/06/27 07:45:32;;;;;;;10.38;2.70;;;25.60;47.50;;;;;;5031911;27;87569;-82
2023/06/27 07:47:58;;;;;;;35.90;5.05;;;25.40;47.70;;;;;;5033053;28;87458;-84
2023/06/27 07:50:24;;;;;;;13.20;3.30;;;25.60;48.70;;;;;;5032033;27;90584;-84
2023/06/27 07:52:49;;;;;;;10.77;2.85;;;25.50;48.80;;;;;;5034073;27;87622;-84
2023/06/27 07:55:15;;;;;;;11.77;2.45;;;25.60;48.10;;;;;;5033732;27;86978;-83
2023/06/27 07:57:41;;;;;;;7.18;2.22;;;25.50;47.90;;;;;;5034776;27;87626;-89
2023/06/27 08:00:08;;;;;;;10.77;3.00;;;25.60;48.50;;;;;;5035806;28;88564;-85
2023/06/27 08:02:33;;;;;;;8.30;3.13;;;25.50;48.60;;;;;;5029340;27;87133;-83
2023/06/27 08:04:59;;;;;;;11.88;2.80;;;25.50;48.00;;;;;;5034445;27;86858;-88
2023/06/27 08:07:24;;;;;;;6.80;2.47;;;25.50;47.70;;;;;;5033557;28;91313;-94
2023/06/27 08:09:50;;;;;;;7.30;2.28;;;25.50;47.50;;;;;;5036662;27;90922;-87
2023/06/27 08:12:15;;;;;;;11.20;2.58;;;25.40;47.30;;;;;;5036441;27;87507;-85
2023/06/27 08:14:43;;;;;;;13.68;2.88;;;25.60;47.50;;;;;;5035736;28;88432;-85
2023/06/27 08:17:08;;;;;;;8.93;2.58;;;25.50;47.20;;;;;;5036148;27;87363;-85
2023/06/27 08:19:34;;;;;;;5.38;1.88;;;25.50;47.30;;;;;;5035828;27;87395;-86
2023/06/27 08:21:59;;;;;;;10.05;2.30;;;25.50;47.30;;;;;;5033449;27;89670;-83
2023/06/27 08:24:25;;;;;;;8.30;2.20;;;25.50;47.40;;;;;;5033200;27;87477;-85
2023/06/27 08:26:54;;;;;;;6.85;2.20;;;25.40;47.50;;;;;;5035235;28;87538;-84
2023/06/27 08:29:20;;;;;;;12.52;3.00;;;25.40;47.40;;;;;;5034810;28;90868;-89
2023/06/27 08:31:46;;;;;;;18.88;4.07;;;25.50;47.40;;;;;;5037404;28;91418;-89
2023/06/27 08:34:12;;;;;;;20.55;4.43;;;25.50;47.60;;;;;;5037813;28;87377;-88
2023/06/27 08:36:38;;;;;;;33.22;5.28;;;25.40;48.30;;;;;;5038133;27;90520;-89
2023/06/27 08:39:03;;;;;;;14.88;3.67;;;25.40;47.00;;;;;;5038959;28;91359;-91
2023/06/27 08:41:29;;;;;;;13.05;3.13;;;25.40;46.90;;;;;;5037372;28;92332;-90
2023/06/27 08:43:55;;;;;;;9.27;2.75;;;25.40;47.80;;;;;;5038360;28;87404;-89
2023/06/27 08:46:22;;;;;;;9.95;2.95;;;25.30;47.60;;;;;;5036114;27;88976;-90
2023/06/27 08:48:52;;;;;;;7.80;2.17;;;25.30;47.10;;;;;;5037688;28;90214;-88
2023/06/27 08:51:21;;;;;;;10.07;2.65;;;25.40;47.10;;;;;;5038236;27;90551;-90
2023/06/27 08:53:50;;;;;;;11.03;2.93;;;25.40;47.00;;;;;;5039180;28;87120;-90
2023/06/27 08:56:18;;;;;;;7.18;2.17;;;25.30;47.10;;;;;;5038857;27;90026;-90
2023/06/27 08:59:03;;;;;;;9.15;2.65;;;25.40;46.60;;;;;;5037482;27;91989;-90
2023/06/27 09:01:33;;;;;;;8.90;3.00;;;25.30;46.80;;;;;;5038338;28;90782;-91
2023/06/27 09:04:00;;;;;;;9.32;2.42;;;25.20;47.00;;;;;;5037652;27;88326;-91
2023/06/27 09:06:26;;;;;;;11.07;2.40;;;25.40;46.70;;;;;;5038162;27;88922;-89
2023/06/27 09:08:52;;;;;;;6.65;2.40;;;25.50;46.70;;;;;;5038869;28;91165;-91
2023/06/27 09:11:18;;;;;;;6.68;2.20;;;25.40;46.60;;;;;;5038588;28;91569;-90
2023/06/27 09:13:44;;;;;;;8.50;2.22;;;25.50;47.00;;;;;;5038154;27;87495;-87
2023/06/27 09:16:10;;;;;;;7.28;2.53;;;25.30;47.30;;;;;;5036478;27;90013;-87
2023/06/27 09:18:37;;;;;;;8.52;2.38;;;25.40;46.30;;;;;;5036665;27;91681;-85
2023/06/27 09:21:03;;;;;;;4.90;2.13;;;25.50;46.40;;;;;;5037752;28;88949;-90
2023/06/27 09:23:30;;;;;;;8.80;2.05;;;25.50;46.20;;;;;;5037023;27;87028;-86
2023/06/27 09:26:12;;;;;;;6.35;2.00;;;25.30;46.30;;;;;;5037834;27;87220;-86
2023/06/27 09:28:51;;;;;;;9.35;2.17;;;25.20;46.90;;;;;;5037484;27;89603;-88
2023/06/27 09:31:20;;;;;;;;;;;25.30;46.90;;;;;;5037085;27;90792;-89
2023/06/27 09:33:48;;;;;;;7.60;2.42;;;25.20;45.80;;;;;;5038363;27;87591;-87
2023/06/27 09:36:33;;;;;;;10.95;2.58;;;25.30;45.90;;;;;;5037523;28;89722;-86
2023/06/27 09:39:00;;;;;;;8.35;2.22;;;25.40;46.20;;;;;;5054382;27;94984;-89
2023/06/27 09:41:44;;;;;;;8.20;2.25;;;25.50;45.60;;;;;;5053478;27;89885;-89
2023/06/27 09:44:17;;;;;;;6.22;1.92;;;25.50;46.10;;;;;;5038165;27;87403;-88
2023/06/27 09:46:44;;;;;;;5.68;1.90;;;25.50;44.30;;;;;;5036241;28;89018;-85
2023/06/27 09:49:09;;;;;;;7.00;2.03;;;25.50;43.60;;;;;;5036967;27;88478;-88
2023/06/27 09:51:36;;;;;;;6.25;1.63;;;25.40;43.00;;;;;;5038260;27;87304;-88
2023/06/27 09:54:02;;;;;;;6.40;1.55;;;25.50;43.30;;;;;;5037368;28;88529;-86
2023/06/27 09:56:30;;;;;;;7.80;1.80;;;25.40;42.60;;;;;;5038087;27;87472;-88
2023/06/27 09:58:56;;;;;;;6.15;2.03;;;25.30;42.80;;;;;;5036201;28;91583;-86
2023/06/27 10:01:25;;;;;;;7.03;2.20;;;25.20;43.50;;;;;;5036674;28;90201;-92
2023/06/27 10:03:50;;;;;;;7.00;2.67;;;25.30;43.80;;;;;;5038114;27;87638;-89
2023/06/27 10:06:16;;;;;;;7.50;2.45;;;25.40;43.50;;;;;;5036283;27;89032;-90
2023/06/27 10:08:42;;;;;;;7.78;1.77;;;25.40;43.50;;;;;;5037911;28;88157;-85
2023/06/27 10:11:08;;;;;;;5.57;2.00;;;25.40;43.50;;;;;;5037459;27;86428;-85
2023/06/27 10:13:34;;;;;;;3.50;1.65;;;25.40;43.50;;;;;;5036825;27;87046;-86
2023/06/27 10:16:02;;;;;;;5.43;1.45;;;25.40;43.10;;;;;;5036541;27;87555;-84
2023/06/27 10:18:28;;;;;;;6.90;1.70;;;25.40;43.00;;;;;;5036992;27;89777;-85
2023/06/27 10:20:56;;;;;;;7.10;1.67;;;25.30;41.50;;;;;;5038129;27;89246;-85
2023/06/27 10:23:22;;;;;;;5.63;1.50;;;25.30;42.00;;;;;;5035865;27;86928;-87
2023/06/27 10:25:48;;;;;;;2.35;1.20;;;25.30;41.40;;;;;;5037504;27;87801;-90
2023/06/27 10:28:15;;;;;;;3.78;1.50;;;25.30;41.10;;;;;;5037063;27;88499;-94
2023/06/27 10:30:44;;;;;;;5.55;1.98;;;25.40;40.70;;;;;;5036704;28;90708;-90
2023/06/27 10:33:22;;;;;;;3.72;1.40;;;25.40;40.30;;;;;;5037644;28;87287;-92
2023/06/27 10:35:53;;;;;;;3.03;1.33;;;25.50;40.10;;;;;;5035302;28;90480;-92
2023/06/27 10:38:19;;;;;;;4.78;1.42;;;25.50;40.20;;;;;;5036675;27;87009;-85
2023/06/27 10:41:00;;;;;;;6.13;1.40;;;25.50;40.50;;;;;;5035332;27;88850;-87
2023/06/27 10:43:51;;;;;;;5.00;1.40;;;25.50;40.10;;;;;;5036082;27;88398;-88
2023/06/27 10:46:19;;;;;;;3.13;1.30;;;25.60;40.30;;;;;;5036095;27;87600;-88
2023/06/27 10:48:48;;;;;;;3.80;1.40;;;25.60;39.70;;;;;;5036719;27;88091;-88
2023/06/27 10:51:22;;;;;;;4.75;1.10;;;25.70;39.90;;;;;;5035754;28;91078;-86
2023/06/27 10:54:06;;;;;;;6.15;1.52;;;25.60;40.20;;;;;;5034747;28;88494;-88
2023/06/27 10:56:43;;;;;;;5.95;1.42;;;25.70;40.30;;;;;;5034628;28;89018;-88
2023/06/27 10:59:15;;;;;;;6.50;1.35;;;25.70;40.20;;;;;;5034067;27;92351;-88
2023/06/27 11:02:02;;;;;;;9.15;1.73;;;25.70;40.40;;;;;;5034573;28;89979;-89
2023/06/27 11:04:40;;;;;;;11.00;2.20;;;25.70;40.60;;;;;;5034361;28;87521;-89
2023/06/27 11:07:12;;;;;;;17.58;3.00;;;25.80;41.00;;;;;;5034770;28;90274;-88
2023/06/27 11:09:37;;;;;;;15.75;3.72;;;25.80;40.50;;;;;;5033645;27;92590;-88
2023/06/27 11:12:11;;;;;;;18.13;3.65;;;25.80;40.70;;;;;;5036641;28;88670;-89
2023/06/27 11:14:44;;;;;;;17.48;3.80;;;25.80;40.40;;;;;;5034806;28;87480;-89
2023/06/27 11:17:14;;;;;;;15.18;3.50;;;25.80;40.50;;;;;;5034046;28;90277;-88
2023/06/27 11:19:42;;;;;;;17.90;4.00;;;25.80;40.70;;;;;;5035607;27;88578;-88
2023/06/27 11:22:08;;;;;;;12.25;2.97;;;25.80;40.80;;;;;;5033935;28;91411;-88
2023/06/27 11:24:33;;;;;;;12.30;3.53;;;25.80;40.60;;;;;;5035909;27;87446;-89
2023/06/27 11:27:01;;;;;;;13.18;3.75;;;25.80;40.20;;;;;;5035345;28;90640;-88
2023/06/27 11:29:30;;;;;;;12.52;3.28;;;25.80;40.30;;;;;;5034100;27;90335;-89
2023/06/27 11:31:55;;;;;;;9.50;2.58;;;25.90;40.40;;;;;;5034831;28;91246;-89
2023/06/27 11:34:21;;;;;;;11.40;2.85;;;25.80;40.00;;;;;;5033986;28;88517;-89
2023/06/27 11:36:47;;;;;;;9.95;2.92;;;25.90;40.10;;;;;;5051054;27;88921;-88
2023/06/27 11:39:14;;;;;;;8.00;2.33;;;25.80;40.20;;;;;;5035547;27;92228;-89
2023/06/27 11:41:40;;;;;;;8.77;2.55;;;25.80;40.10;;;;;;5039168;28;90794;-88
2023/06/27 11:44:31;;;;;;;8.85;2.60;;;25.80;40.30;;;;;;5037797;27;86946;-89
2023/06/27 11:46:57;;;;;;;9.65;2.63;;;25.90;40.10;;;;;;5037726;27;90512;-89
2023/06/27 11:49:24;;;;;;;8.48;2.67;;;25.90;39.70;;;;;;5037506;27;90901;-89
2023/06/27 11:51:51;;;;;;;11.75;3.00;;;25.80;39.90;;;;;;5037754;27;91477;-88
2023/06/27 11:54:17;;;;;;;9.43;3.10;;;25.80;40.00;;;;;;5039588;27;87355;-88
2023/06/27 11:56:43;;;;;;;9.48;2.60;;;25.80;40.00;;;;;;5039556;28;87557;-89
2023/06/27 11:59:09;;;;;;;6.47;2.17;;;25.80;39.80;;;;;;5037831;27;90106;-88
2023/06/27 12:01:40;;;;;;;7.40;2.55;;;25.80;39.80;;;;;;5038293;27;88642;-89
2023/06/27 12:04:16;;;;;;;10.25;2.53;;;25.80;40.20;;;;;;5037498;28;87560;-88
2023/06/27 12:06:44;;;;;;;10.60;2.40;;;25.80;40.30;;;;;;5036499;28;88424;-88
2023/06/27 12:09:25;;;;;;;5.68;2.30;;;25.80;40.20;;;;;;5038274;28;90068;-90
2023/06/27 12:11:59;;;;;;;3.72;1.75;;;25.80;40.00;;;;;;5038874;28;92095;-88
2023/06/27 12:14:26;;;;;;;7.20;2.33;;;25.80;39.70;;;;;;5037127;27;87284;-89
2023/06/27 12:16:53;;;;;;;7.07;2.40;;;25.80;39.70;;;;;;5037298;28;89100;-87
2023/06/27 12:19:20;;;;;;;6.18;1.95;;;25.90;39.90;;;;;;5036732;27;90392;-88
2023/06/27 12:21:46;;;;;;;5.30;2.40;;;25.90;39.70;;;;;;5036966;27;90312;-88
2023/06/27 12:24:12;;;;;;;5.03;1.90;;;25.90;39.80;;;;;;5037563;28;88102;-88
2023/06/27 12:26:39;;;;;;;4.60;2.17;;;25.90;39.80;;;;;;5038661;27;87491;-88
2023/06/27 12:29:06;;;;;;;4.00;1.73;;;25.90;39.60;;;;;;5038330;27;88702;-88
2023/06/27 12:31:32;;;;;;;4.15;1.88;;;25.90;40.00;;;;;;5036415;27;89264;-87
2023/06/27 12:34:01;;;;;;;3.47;1.70;;;25.90;39.70;;;;;;5038352;27;87325;-88
2023/06/27 12:36:27;;;;;;;;;;;25.90;39.70;;;;;;5037043;27;89357;-88
2023/06/27 12:38:53;;;;;;;5.35;1.70;;;25.90;40.10;;;;;;5039228;28;90771;-88
2023/06/27 12:41:20;;;;;;;5.30;1.58;;;26.00;39.80;;;;;;5036843;27;90340;-89
2023/06/27 12:43:46;;;;;;;5.13;1.73;;;25.90;39.50;;;;;;5038614;27;87053;-88
2023/06/27 12:46:12;;;;;;;4.90;1.83;;;25.90;39.80;;;;;;5036294;28;89829;-88